sensor_id;sensor_type;location;lat;lon;timestamp;temperature;humidity
24664;DHT22;12791;50.992;13.788;2023-05-16T00:01:45;14.20;99.90
24664;DHT22;12791;50.992;13.788;2023-05-16T00:04:12;14.20;99.90
24664;DHT22;12791;50.992;13.788;2023-05-16T00:06:39;14.20;99.90
24664;DHT22;12791;50.992;13.788;2023-05-16T00:09:07;14.10;99.90
24664;DHT22;12791;50.992;13.788;2023-05-16T00:11:33;14.10;99.90
24664;DHT22;12791;50.992;13.788;2023-05-16T00:14:00;14.10;99.90
24664;DHT22;12791;50.992;13.788;2023-05-16T00:16:27;14.20;99.90
24664;DHT22;12791;50.992;13.788;2023-05-16T00:18:54;14.10;99.90
24664;DHT22;12791;50.992;13.788;2023-05-16T00:21:21;14.10;99.90
24664;DHT22;12791;50.992;13.788;2023-05-16T00:23:49;14.10;99.90
24664;DHT22;12791;50.992;13.788;2023-05-16T00:26:18;14.10;99.90
24664;DHT22;12791;50.992;13.788;2023-05-16T00:28:45;14.10;99.90
24664;DHT22;12791;50.992;13.788;2023-05-16T00:31:11;14.10;99.90
24664;DHT22;12791;50.992;13.788;2023-05-16T00:33:38;14.00;99.90
24664;DHT22;12791;50.992;13.788;2023-05-16T00:36:05;14.00;99.90
24664;DHT22;12791;50.992;13.788;2023-05-16T00:38:32;14.10;99.90
24664;DHT22;12791;50.992;13.788;2023-05-16T00:40:59;14.00;99.90
24664;DHT22;12791;50.992;13.788;2023-05-16T00:43:27;14.00;99.90
24664;DHT22;12791;50.992;13.788;2023-05-16T00:45:53;13.90;99.90
24664;DHT22;12791;50.992;13.788;2023-05-16T00:48:22;13.90;99.90
24664;DHT22;12791;50.992;13.788;2023-05-16T00:50:49;13.90;99.90
24664;DHT22;12791;50.992;13.788;2023-05-16T00:53:17;13.80;99.90
24664;DHT22;12791;50.992;13.788;2023-05-16T00:55:44;13.80;99.90
24664;DHT22;12791;50.992;13.788;2023-05-16T00:58:13;13.80;99.90
24664;DHT22;12791;50.992;13.788;2023-05-16T01:00:41;13.80;99.90
24664;DHT22;12791;50.992;13.788;2023-05-16T01:03:09;13.80;99.90
24664;DHT22;12791;50.992;13.788;2023-05-16T01:05:37;13.80;99.90
24664;DHT22;12791;50.992;13.788;2023-05-16T01:08:03;13.80;99.90
24664;DHT22;12791;50.992;13.788;2023-05-16T01:10:38;13.80;99.90
24664;DHT22;12791;50.992;13.788;2023-05-16T01:13:14;13.80;99.90
24664;DHT22;12791;50.992;13.788;2023-05-16T01:15:48;13.80;99.90
24664;DHT22;12791;50.992;13.788;2023-05-16T01:18:22;13.70;99.90
24664;DHT22;12791;50.992;13.788;2023-05-16T01:20:55;13.70;99.90
24664;DHT22;12791;50.992;13.788;2023-05-16T01:23:39;13.70;99.90
24664;DHT22;12791;50.992;13.788;2023-05-16T01:26:14;13.70;99.90
24664;DHT22;12791;50.992;13.788;2023-05-16T01:28:43;13.70;99.90
24664;DHT22;12791;50.992;13.788;2023-05-16T01:31:11;13.70;99.90
24664;DHT22;12791;50.992;13.788;2023-05-16T01:33:37;13.70;99.90
24664;DHT22;12791;50.992;13.788;2023-05-16T01:36:10;13.60;99.90
24664;DHT22;12791;50.992;13.788;2023-05-16T01:38:42;13.60;99.90
24664;DHT22;12791;50.992;13.788;2023-05-16T01:41:17;13.60;99.90
24664;DHT22;12791;50.992;13.788;2023-05-16T01:43:50;13.60;99.90
24664;DHT22;12791;50.992;13.788;2023-05-16T01:46:20;13.60;99.90
24664;DHT22;12791;50.992;13.788;2023-05-16T01:48:52;13.60;99.90
24664;DHT22;12791;50.992;13.788;2023-05-16T01:51:23;13.50;99.90
24664;DHT22;12791;50.992;13.788;2023-05-16T01:53:53;13.60;99.90
24664;DHT22;12791;50.992;13.788;2023-05-16T01:56:25;13.50;99.90
24664;DHT22;12791;50.992;13.788;2023-05-16T01:58:54;13.50;99.90
24664;DHT22;12791;50.992;13.788;2023-05-16T02:01:22;13.50;99.90
24664;DHT22;12791;50.992;13.788;2023-05-16T02:03:48;13.50;99.90
24664;DHT22;12791;50.992;13.788;2023-05-16T02:06:16;13.50;99.90
24664;DHT22;12791;50.992;13.788;2023-05-16T02:08:42;13.40;99.90
24664;DHT22;12791;50.992;13.788;2023-05-16T02:11:09;13.40;99.90
24664;DHT22;12791;50.992;13.788;2023-05-16T02:13:37;13.40;99.90
24664;DHT22;12791;50.992;13.788;2023-05-16T02:16:04;13.40;99.90
24664;DHT22;12791;50.992;13.788;2023-05-16T02:18:30;13.40;99.90
24664;DHT22;12791;50.992;13.788;2023-05-16T02:20:57;13.30;99.90
24664;DHT22;12791;50.992;13.788;2023-05-16T02:23:24;13.40;99.90
24664;DHT22;12791;50.992;13.788;2023-05-16T02:25:50;13.30;99.90
24664;DHT22;12791;50.992;13.788;2023-05-16T02:28:17;13.30;99.90
24664;DHT22;12791;50.992;13.788;2023-05-16T02:30:45;13.30;99.90
24664;DHT22;12791;50.992;13.788;2023-05-16T02:33:11;13.30;99.90
24664;DHT22;12791;50.992;13.788;2023-05-16T02:35:38;13.30;99.90
24664;DHT22;12791;50.992;13.788;2023-05-16T02:38:05;13.30;99.90
24664;DHT22;12791;50.992;13.788;2023-05-16T02:40:31;13.30;99.90
24664;DHT22;12791;50.992;13.788;2023-05-16T02:42:58;13.30;99.90
24664;DHT22;12791;50.992;13.788;2023-05-16T02:45:25;13.30;99.90
24664;DHT22;12791;50.992;13.788;2023-05-16T02:47:52;13.30;99.90
24664;DHT22;12791;50.992;13.788;2023-05-16T02:50:19;13.40;99.90
24664;DHT22;12791;50.992;13.788;2023-05-16T02:52:46;13.40;99.90
24664;DHT22;12791;50.992;13.788;2023-05-16T02:55:13;13.40;99.90
24664;DHT22;12791;50.992;13.788;2023-05-16T02:57:40;13.40;99.90
24664;DHT22;12791;50.992;13.788;2023-05-16T03:00:07;13.30;99.90
24664;DHT22;12791;50.992;13.788;2023-05-16T03:02:36;13.40;99.90
24664;DHT22;12791;50.992;13.788;2023-05-16T03:05:04;13.40;99.90
24664;DHT22;12791;50.992;13.788;2023-05-16T03:07:31;13.40;99.90
24664;DHT22;12791;50.992;13.788;2023-05-16T03:09:57;13.40;99.90
24664;DHT22;12791;50.992;13.788;2023-05-16T03:12:24;13.40;99.90
24664;DHT22;12791;50.992;13.788;2023-05-16T03:14:51;13.40;99.90
24664;DHT22;12791;50.992;13.788;2023-05-16T03:17:17;13.40;99.90
24664;DHT22;12791;50.992;13.788;2023-05-16T03:19:44;13.40;99.90
24664;DHT22;12791;50.992;13.788;2023-05-16T03:22:12;13.40;99.90
24664;DHT22;12791;50.992;13.788;2023-05-16T03:24:39;13.40;99.90
24664;DHT22;12791;50.992;13.788;2023-05-16T03:27:05;13.40;99.90
24664;DHT22;12791;50.992;13.788;2023-05-16T03:29:32;13.40;99.90
24664;DHT22;12791;50.992;13.788;2023-05-16T03:31:59;13.40;99.90
24664;DHT22;12791;50.992;13.788;2023-05-16T03:34:26;13.40;99.90
24664;DHT22;12791;50.992;13.788;2023-05-16T03:36:52;13.30;99.90
24664;DHT22;12791;50.992;13.788;2023-05-16T03:39:20;13.30;99.90
24664;DHT22;12791;50.992;13.788;2023-05-16T03:41:47;13.30;99.90
24664;DHT22;12791;50.992;13.788;2023-05-16T03:44:13;13.40;99.90
24664;DHT22;12791;50.992;13.788;2023-05-16T03:46:40;13.40;99.90
24664;DHT22;12791;50.992;13.788;2023-05-16T03:49:07;13.40;99.90
24664;DHT22;12791;50.992;13.788;2023-05-16T03:51:33;13.40;99.90
24664;DHT22;12791;50.992;13.788;2023-05-16T03:54:00;13.40;99.90
24664;DHT22;12791;50.992;13.788;2023-05-16T03:56:28;13.40;99.90
24664;DHT22;12791;50.992;13.788;2023-05-16T03:58:54;13.40;99.90
24664;DHT22;12791;50.992;13.788;2023-05-16T04:01:21;13.40;99.90
24664;DHT22;12791;50.992;13.788;2023-05-16T04:03:47;13.40;99.90
24664;DHT22;12791;50.992;13.788;2023-05-16T04:06:15;13.40;99.90
24664;DHT22;12791;50.992;13.788;2023-05-16T04:08:41;13.40;99.90
24664;DHT22;12791;50.992;13.788;2023-05-16T04:11:09;13.40;99.90
24664;DHT22;12791;50.992;13.788;2023-05-16T04:13:37;13.40;99.90
24664;DHT22;12791;50.992;13.788;2023-05-16T04:16:04;13.40;99.90
24664;DHT22;12791;50.992;13.788;2023-05-16T04:18:31;13.40;99.90
24664;DHT22;12791;50.992;13.788;2023-05-16T04:20:58;13.40;99.90
24664;DHT22;12791;50.992;13.788;2023-05-16T04:23:24;13.40;99.90
24664;DHT22;12791;50.992;13.788;2023-05-16T04:25:51;13.40;99.90
24664;DHT22;12791;50.992;13.788;2023-05-16T04:28:18;13.40;99.90
24664;DHT22;12791;50.992;13.788;2023-05-16T04:30:46;13.10;99.90
24664;DHT22;12791;50.992;13.788;2023-05-16T04:33:13;13.50;99.90
24664;DHT22;12791;50.992;13.788;2023-05-16T04:35:41;13.50;99.90
24664;DHT22;12791;50.992;13.788;2023-05-16T04:38:07;13.50;99.90
24664;DHT22;12791;50.992;13.788;2023-05-16T04:40:34;13.50;99.90
24664;DHT22;12791;50.992;13.788;2023-05-16T04:43:00;13.50;99.90
24664;DHT22;12791;50.992;13.788;2023-05-16T04:45:27;13.40;99.90
24664;DHT22;12791;50.992;13.788;2023-05-16T04:47:55;13.50;99.90
24664;DHT22;12791;50.992;13.788;2023-05-16T04:50:22;13.40;99.90
24664;DHT22;12791;50.992;13.788;2023-05-16T04:52:48;13.40;99.90
24664;DHT22;12791;50.992;13.788;2023-05-16T04:55:15;13.40;99.90
24664;DHT22;12791;50.992;13.788;2023-05-16T04:57:42;13.40;99.90
24664;DHT22;12791;50.992;13.788;2023-05-16T05:00:09;13.40;99.90
24664;DHT22;12791;50.992;13.788;2023-05-16T05:02:36;13.40;99.90
24664;DHT22;12791;50.992;13.788;2023-05-16T05:05:05;13.40;99.90
24664;DHT22;12791;50.992;13.788;2023-05-16T05:07:32;13.40;99.90
24664;DHT22;12791;50.992;13.788;2023-05-16T05:09:59;13.30;99.90
24664;DHT22;12791;50.992;13.788;2023-05-16T05:12:26;13.30;99.90
24664;DHT22;12791;50.992;13.788;2023-05-16T05:14:53;13.30;99.90
24664;DHT22;12791;50.992;13.788;2023-05-16T05:17:21;13.30;99.90
24664;DHT22;12791;50.992;13.788;2023-05-16T05:19:48;13.20;99.90
24664;DHT22;12791;50.992;13.788;2023-05-16T05:22:16;13.20;99.90
24664;DHT22;12791;50.992;13.788;2023-05-16T05:24:43;13.10;99.90
24664;DHT22;12791;50.992;13.788;2023-05-16T05:27:09;13.10;99.90
24664;DHT22;12791;50.992;13.788;2023-05-16T05:29:36;13.10;99.90
24664;DHT22;12791;50.992;13.788;2023-05-16T05:32:03;13.10;99.90
24664;DHT22;12791;50.992;13.788;2023-05-16T05:34:30;13.00;99.90
24664;DHT22;12791;50.992;13.788;2023-05-16T05:36:57;13.00;99.90
24664;DHT22;12791;50.992;13.788;2023-05-16T05:39:25;13.00;99.90
24664;DHT22;12791;50.992;13.788;2023-05-16T05:41:52;13.00;99.90
24664;DHT22;12791;50.992;13.788;2023-05-16T05:44:19;13.00;99.90
24664;DHT22;12791;50.992;13.788;2023-05-16T05:46:45;13.10;99.90
24664;DHT22;12791;50.992;13.788;2023-05-16T05:49:12;13.00;99.90
24664;DHT22;12791;50.992;13.788;2023-05-16T05:51:39;13.00;99.90
24664;DHT22;12791;50.992;13.788;2023-05-16T05:54:05;13.00;99.90
24664;DHT22;12791;50.992;13.788;2023-05-16T05:56:33;12.90;99.90
24664;DHT22;12791;50.992;13.788;2023-05-16T05:59:00;12.90;99.90
24664;DHT22;12791;50.992;13.788;2023-05-16T06:01:27;13.00;99.90
24664;DHT22;12791;50.992;13.788;2023-05-16T06:03:54;12.90;99.90
24664;DHT22;12791;50.992;13.788;2023-05-16T06:06:21;13.00;99.90
24664;DHT22;12791;50.992;13.788;2023-05-16T06:08:48;13.00;99.90
24664;DHT22;12791;50.992;13.788;2023-05-16T06:11:15;13.00;99.90
24664;DHT22;12791;50.992;13.788;2023-05-16T06:13:43;13.00;99.90
24664;DHT22;12791;50.992;13.788;2023-05-16T06:16:09;13.00;99.90
24664;DHT22;12791;50.992;13.788;2023-05-16T06:18:36;12.90;99.90
24664;DHT22;12791;50.992;13.788;2023-05-16T06:21:03;12.90;99.90
24664;DHT22;12791;50.992;13.788;2023-05-16T06:23:30;12.80;99.90
24664;DHT22;12791;50.992;13.788;2023-05-16T06:25:57;12.90;99.90
24664;DHT22;12791;50.992;13.788;2023-05-16T06:28:23;12.80;99.90
24664;DHT22;12791;50.992;13.788;2023-05-16T06:30:51;12.80;99.90
24664;DHT22;12791;50.992;13.788;2023-05-16T06:33:18;12.70;99.90
24664;DHT22;12791;50.992;13.788;2023-05-16T06:35:45;12.60;99.90
24664;DHT22;12791;50.992;13.788;2023-05-16T06:38:12;12.60;99.90
24664;DHT22;12791;50.992;13.788;2023-05-16T06:40:39;12.60;99.90
24664;DHT22;12791;50.992;13.788;2023-05-16T06:43:06;12.50;99.90
24664;DHT22;12791;50.992;13.788;2023-05-16T06:45:32;12.60;99.90
24664;DHT22;12791;50.992;13.788;2023-05-16T06:48:00;12.60;99.90
24664;DHT22;12791;50.992;13.788;2023-05-16T06:50:27;12.70;99.90
24664;DHT22;12791;50.992;13.788;2023-05-16T06:52:54;12.70;99.90
24664;DHT22;12791;50.992;13.788;2023-05-16T06:55:20;12.70;99.90
24664;DHT22;12791;50.992;13.788;2023-05-16T06:57:47;12.70;99.90
24664;DHT22;12791;50.992;13.788;2023-05-16T07:00:14;12.70;99.90
24664;DHT22;12791;50.992;13.788;2023-05-16T07:02:41;12.70;99.90
24664;DHT22;12791;50.992;13.788;2023-05-16T07:05:09;12.70;99.90
24664;DHT22;12791;50.992;13.788;2023-05-16T07:07:36;12.60;99.90
24664;DHT22;12791;50.992;13.788;2023-05-16T07:10:02;12.50;99.90
24664;DHT22;12791;50.992;13.788;2023-05-16T07:12:29;12.50;99.90
24664;DHT22;12791;50.992;13.788;2023-05-16T07:14:56;12.40;99.90
24664;DHT22;12791;50.992;13.788;2023-05-16T07:17:22;12.30;99.90
24664;DHT22;12791;50.992;13.788;2023-05-16T07:19:49;12.30;99.90
24664;DHT22;12791;50.992;13.788;2023-05-16T07:22:17;12.20;99.90
24664;DHT22;12791;50.992;13.788;2023-05-16T07:24:44;12.10;99.90
24664;DHT22;12791;50.992;13.788;2023-05-16T07:27:10;12.10;99.90
24664;DHT22;12791;50.992;13.788;2023-05-16T07:29:37;12.10;99.90
24664;DHT22;12791;50.992;13.788;2023-05-16T07:32:05;12.10;99.90
24664;DHT22;12791;50.992;13.788;2023-05-16T07:34:31;12.10;99.90
24664;DHT22;12791;50.992;13.788;2023-05-16T07:36:58;12.10;99.90
24664;DHT22;12791;50.992;13.788;2023-05-16T07:39:26;12.00;99.90
24664;DHT22;12791;50.992;13.788;2023-05-16T07:41:53;11.90;99.90
24664;DHT22;12791;50.992;13.788;2023-05-16T07:44:19;11.90;99.90
24664;DHT22;12791;50.992;13.788;2023-05-16T07:46:46;11.80;99.90
24664;DHT22;12791;50.992;13.788;2023-05-16T07:49:12;11.80;99.90
24664;DHT22;12791;50.992;13.788;2023-05-16T07:51:39;11.70;99.90
24664;DHT22;12791;50.992;13.788;2023-05-16T07:54:06;11.70;99.90
24664;DHT22;12791;50.992;13.788;2023-05-16T07:56:33;11.70;99.90
24664;DHT22;12791;50.992;13.788;2023-05-16T07:59:00;11.70;99.90
24664;DHT22;12791;50.992;13.788;2023-05-16T08:01:27;11.70;99.90
24664;DHT22;12791;50.992;13.788;2023-05-16T08:03:53;11.70;99.90
24664;DHT22;12791;50.992;13.788;2023-05-16T08:06:20;11.70;99.90
24664;DHT22;12791;50.992;13.788;2023-05-16T08:08:47;11.70;99.90
24664;DHT22;12791;50.992;13.788;2023-05-16T08:11:14;11.70;99.90
24664;DHT22;12791;50.992;13.788;2023-05-16T08:13:41;11.70;99.90
24664;DHT22;12791;50.992;13.788;2023-05-16T08:16:08;11.70;99.90
24664;DHT22;12791;50.992;13.788;2023-05-16T08:18:36;11.70;99.90
24664;DHT22;12791;50.992;13.788;2023-05-16T08:21:02;11.80;99.90
24664;DHT22;12791;50.992;13.788;2023-05-16T08:23:29;11.70;99.90
24664;DHT22;12791;50.992;13.788;2023-05-16T08:25:56;11.70;99.90
24664;DHT22;12791;50.992;13.788;2023-05-16T08:28:23;11.70;99.90
24664;DHT22;12791;50.992;13.788;2023-05-16T08:30:51;11.80;99.90
24664;DHT22;12791;50.992;13.788;2023-05-16T08:33:18;11.80;99.90
24664;DHT22;12791;50.992;13.788;2023-05-16T08:35:44;11.80;99.90
24664;DHT22;12791;50.992;13.788;2023-05-16T08:38:13;11.80;99.90
24664;DHT22;12791;50.992;13.788;2023-05-16T08:40:39;11.80;99.90
24664;DHT22;12791;50.992;13.788;2023-05-16T08:43:07;11.80;99.90
24664;DHT22;12791;50.992;13.788;2023-05-16T08:45:34;11.80;99.90
24664;DHT22;12791;50.992;13.788;2023-05-16T08:48:04;11.70;99.90
24664;DHT22;12791;50.992;13.788;2023-05-16T08:50:31;11.70;99.90
24664;DHT22;12791;50.992;13.788;2023-05-16T08:53:03;11.70;99.90
24664;DHT22;12791;50.992;13.788;2023-05-16T08:55:31;11.70;99.90
24664;DHT22;12791;50.992;13.788;2023-05-16T08:57:59;11.70;99.90
24664;DHT22;12791;50.992;13.788;2023-05-16T09:00:26;11.80;99.90
24664;DHT22;12791;50.992;13.788;2023-05-16T09:02:53;11.80;99.90
24664;DHT22;12791;50.992;13.788;2023-05-16T09:05:22;11.80;99.90
24664;DHT22;12791;50.992;13.788;2023-05-16T09:07:49;11.80;99.90
24664;DHT22;12791;50.992;13.788;2023-05-16T09:10:15;11.80;99.90
24664;DHT22;12791;50.992;13.788;2023-05-16T09:12:42;11.80;99.90
24664;DHT22;12791;50.992;13.788;2023-05-16T09:15:09;11.70;99.90
24664;DHT22;12791;50.992;13.788;2023-05-16T09:17:37;11.40;99.90
24664;DHT22;12791;50.992;13.788;2023-05-16T09:20:11;11.80;99.90
24664;DHT22;12791;50.992;13.788;2023-05-16T09:22:49;11.80;99.90
24664;DHT22;12791;50.992;13.788;2023-05-16T09:25:17;11.80;99.90
24664;DHT22;12791;50.992;13.788;2023-05-16T09:27:45;11.80;99.90
24664;DHT22;12791;50.992;13.788;2023-05-16T09:30:13;11.70;99.90
24664;DHT22;12791;50.992;13.788;2023-05-16T09:32:42;11.80;99.90
24664;DHT22;12791;50.992;13.788;2023-05-16T09:35:10;11.80;99.90
24664;DHT22;12791;50.992;13.788;2023-05-16T09:37:44;11.80;99.90
24664;DHT22;12791;50.992;13.788;2023-05-16T09:40:12;11.80;99.90
24664;DHT22;12791;50.992;13.788;2023-05-16T09:42:38;11.80;99.90
24664;DHT22;12791;50.992;13.788;2023-05-16T09:45:06;11.80;99.90
24664;DHT22;12791;50.992;13.788;2023-05-16T09:47:34;11.80;99.90
24664;DHT22;12791;50.992;13.788;2023-05-16T09:50:00;11.80;99.90
24664;DHT22;12791;50.992;13.788;2023-05-16T09:52:28;11.90;99.90
24664;DHT22;12791;50.992;13.788;2023-05-16T09:54:56;11.90;99.90
24664;DHT22;12791;50.992;13.788;2023-05-16T09:57:23;12.00;99.90
24664;DHT22;12791;50.992;13.788;2023-05-16T09:59:51;12.00;99.90
24664;DHT22;12791;50.992;13.788;2023-05-16T10:02:18;12.00;99.90
24664;DHT22;12791;50.992;13.788;2023-05-16T10:04:46;12.00;99.90
24664;DHT22;12791;50.992;13.788;2023-05-16T10:07:12;12.00;99.90
24664;DHT22;12791;50.992;13.788;2023-05-16T10:09:40;12.00;99.90
24664;DHT22;12791;50.992;13.788;2023-05-16T10:12:10;12.00;99.90
24664;DHT22;12791;50.992;13.788;2023-05-16T10:14:40;12.00;99.90
24664;DHT22;12791;50.992;13.788;2023-05-16T10:17:07;12.00;99.90
24664;DHT22;12791;50.992;13.788;2023-05-16T10:19:38;12.00;99.90
24664;DHT22;12791;50.992;13.788;2023-05-16T10:22:05;12.00;99.90
24664;DHT22;12791;50.992;13.788;2023-05-16T10:24:38;12.00;99.90
24664;DHT22;12791;50.992;13.788;2023-05-16T10:27:11;12.00;99.90
24664;DHT22;12791;50.992;13.788;2023-05-16T10:29:38;12.10;99.90
24664;DHT22;12791;50.992;13.788;2023-05-16T10:32:06;12.10;99.90
24664;DHT22;12791;50.992;13.788;2023-05-16T10:34:33;12.00;99.90
24664;DHT22;12791;50.992;13.788;2023-05-16T10:37:00;12.10;99.90
24664;DHT22;12791;50.992;13.788;2023-05-16T10:39:28;12.10;99.90
24664;DHT22;12791;50.992;13.788;2023-05-16T10:41:56;12.20;99.90
24664;DHT22;12791;50.992;13.788;2023-05-16T10:44:25;12.20;99.90
24664;DHT22;12791;50.992;13.788;2023-05-16T10:46:53;12.20;99.90
24664;DHT22;12791;50.992;13.788;2023-05-16T10:49:21;12.20;99.90
24664;DHT22;12791;50.992;13.788;2023-05-16T10:52:08;12.20;99.90
24664;DHT22;12791;50.992;13.788;2023-05-16T10:54:36;12.30;99.90
24664;DHT22;12791;50.992;13.788;2023-05-16T10:57:04;12.30;99.90
24664;DHT22;12791;50.992;13.788;2023-05-16T10:59:41;12.20;99.90
24664;DHT22;12791;50.992;13.788;2023-05-16T11:02:22;12.20;99.90
24664;DHT22;12791;50.992;13.788;2023-05-16T11:04:49;12.20;99.90
24664;DHT22;12791;50.992;13.788;2023-05-16T11:07:17;12.20;99.90
24664;DHT22;12791;50.992;13.788;2023-05-16T11:09:44;12.20;99.90
24664;DHT22;12791;50.992;13.788;2023-05-16T11:12:12;12.30;99.90
24664;DHT22;12791;50.992;13.788;2023-05-16T11:14:40;12.30;99.90
24664;DHT22;12791;50.992;13.788;2023-05-16T11:17:09;12.30;99.90
24664;DHT22;12791;50.992;13.788;2023-05-16T11:19:41;12.30;99.90
24664;DHT22;12791;50.992;13.788;2023-05-16T11:22:10;12.40;99.90
24664;DHT22;12791;50.992;13.788;2023-05-16T11:24:48;12.40;99.90
24664;DHT22;12791;50.992;13.788;2023-05-16T11:27:20;12.40;99.90
24664;DHT22;12791;50.992;13.788;2023-05-16T11:29:49;12.40;99.90
24664;DHT22;12791;50.992;13.788;2023-05-16T11:32:18;12.50;99.90
24664;DHT22;12791;50.992;13.788;2023-05-16T11:34:46;12.50;99.90
24664;DHT22;12791;50.992;13.788;2023-05-16T11:37:13;12.50;99.90
24664;DHT22;12791;50.992;13.788;2023-05-16T11:39:39;12.60;99.90
24664;DHT22;12791;50.992;13.788;2023-05-16T11:42:06;12.60;99.90
24664;DHT22;12791;50.992;13.788;2023-05-16T11:44:34;12.60;99.90
24664;DHT22;12791;50.992;13.788;2023-05-16T11:47:02;12.60;99.90
24664;DHT22;12791;50.992;13.788;2023-05-16T11:49:29;12.60;99.90
24664;DHT22;12791;50.992;13.788;2023-05-16T11:51:56;12.60;99.90
24664;DHT22;12791;50.992;13.788;2023-05-16T11:54:23;12.50;99.90
24664;DHT22;12791;50.992;13.788;2023-05-16T11:56:50;12.50;99.90
24664;DHT22;12791;50.992;13.788;2023-05-16T11:59:17;12.50;99.90
24664;DHT22;12791;50.992;13.788;2023-05-16T12:01:44;12.50;99.90
24664;DHT22;12791;50.992;13.788;2023-05-16T12:04:15;12.50;99.90
24664;DHT22;12791;50.992;13.788;2023-05-16T12:06:42;12.60;99.90
24664;DHT22;12791;50.992;13.788;2023-05-16T12:09:11;12.60;99.90
24664;DHT22;12791;50.992;13.788;2023-05-16T12:11:39;12.80;99.90
24664;DHT22;12791;50.992;13.788;2023-05-16T12:14:07;13.00;99.90
24664;DHT22;12791;50.992;13.788;2023-05-16T12:16:34;13.10;99.90
24664;DHT22;12791;50.992;13.788;2023-05-16T12:19:02;13.20;99.90
24664;DHT22;12791;50.992;13.788;2023-05-16T12:21:31;13.30;99.90
24664;DHT22;12791;50.992;13.788;2023-05-16T12:23:58;13.40;99.90
24664;DHT22;12791;50.992;13.788;2023-05-16T12:26:25;13.40;99.90
24664;DHT22;12791;50.992;13.788;2023-05-16T12:28:56;13.40;99.90
24664;DHT22;12791;50.992;13.788;2023-05-16T12:31:25;13.50;99.90
24664;DHT22;12791;50.992;13.788;2023-05-16T12:33:52;13.50;99.90
24664;DHT22;12791;50.992;13.788;2023-05-16T12:36:20;13.50;99.90
24664;DHT22;12791;50.992;13.788;2023-05-16T12:38:48;13.60;99.90
24664;DHT22;12791;50.992;13.788;2023-05-16T12:41:17;13.60;99.90
24664;DHT22;12791;50.992;13.788;2023-05-16T12:43:44;13.60;99.90
24664;DHT22;12791;50.992;13.788;2023-05-16T12:46:11;13.50;99.90
24664;DHT22;12791;50.992;13.788;2023-05-16T12:48:37;13.60;99.90
24664;DHT22;12791;50.992;13.788;2023-05-16T12:51:10;13.50;99.90
24664;DHT22;12791;50.992;13.788;2023-05-16T12:53:41;13.60;99.90
24664;DHT22;12791;50.992;13.788;2023-05-16T12:56:10;13.60;99.90
24664;DHT22;12791;50.992;13.788;2023-05-16T12:58:37;13.60;99.90
24664;DHT22;12791;50.992;13.788;2023-05-16T13:01:03;13.60;99.90
24664;DHT22;12791;50.992;13.788;2023-05-16T13:03:30;13.60;99.90
24664;DHT22;12791;50.992;13.788;2023-05-16T13:05:57;13.70;99.90
24664;DHT22;12791;50.992;13.788;2023-05-16T13:08:24;13.70;99.90
24664;DHT22;12791;50.992;13.788;2023-05-16T13:10:51;13.70;99.90
24664;DHT22;12791;50.992;13.788;2023-05-16T13:13:19;13.70;99.90
24664;DHT22;12791;50.992;13.788;2023-05-16T13:15:46;13.70;99.90
24664;DHT22;12791;50.992;13.788;2023-05-16T13:18:13;13.70;99.90
24664;DHT22;12791;50.992;13.788;2023-05-16T13:20:40;13.60;99.90
24664;DHT22;12791;50.992;13.788;2023-05-16T13:23:06;13.60;99.90
24664;DHT22;12791;50.992;13.788;2023-05-16T13:25:33;13.60;99.90
24664;DHT22;12791;50.992;13.788;2023-05-16T13:28:00;13.60;99.90
24664;DHT22;12791;50.992;13.788;2023-05-16T13:30:28;13.70;99.90
24664;DHT22;12791;50.992;13.788;2023-05-16T13:32:55;13.60;99.90
24664;DHT22;12791;50.992;13.788;2023-05-16T13:35:22;13.50;99.90
24664;DHT22;12791;50.992;13.788;2023-05-16T13:37:48;13.50;99.90
24664;DHT22;12791;50.992;13.788;2023-05-16T13:40:15;13.50;99.90
24664;DHT22;12791;50.992;13.788;2023-05-16T13:42:41;13.40;99.90
24664;DHT22;12791;50.992;13.788;2023-05-16T13:45:08;13.40;99.90
24664;DHT22;12791;50.992;13.788;2023-05-16T13:47:36;13.40;99.90
24664;DHT22;12791;50.992;13.788;2023-05-16T13:50:04;13.40;99.90
24664;DHT22;12791;50.992;13.788;2023-05-16T13:52:34;13.40;99.90
24664;DHT22;12791;50.992;13.788;2023-05-16T13:55:01;13.40;99.90
24664;DHT22;12791;50.992;13.788;2023-05-16T13:57:28;13.30;99.90
24664;DHT22;12791;50.992;13.788;2023-05-16T13:59:54;13.30;99.90
24664;DHT22;12791;50.992;13.788;2023-05-16T14:02:22;13.40;99.90
24664;DHT22;12791;50.992;13.788;2023-05-16T14:04:51;13.30;99.90
24664;DHT22;12791;50.992;13.788;2023-05-16T14:07:18;13.30;99.90
24664;DHT22;12791;50.992;13.788;2023-05-16T14:09:45;13.30;99.90
24664;DHT22;12791;50.992;13.788;2023-05-16T14:12:11;13.30;99.90
24664;DHT22;12791;50.992;13.788;2023-05-16T14:14:38;13.30;99.90
24664;DHT22;12791;50.992;13.788;2023-05-16T14:17:04;13.30;99.90
24664;DHT22;12791;50.992;13.788;2023-05-16T14:19:31;13.30;99.90
24664;DHT22;12791;50.992;13.788;2023-05-16T14:21:59;13.30;99.90
24664;DHT22;12791;50.992;13.788;2023-05-16T14:24:26;13.40;99.90
24664;DHT22;12791;50.992;13.788;2023-05-16T14:26:53;13.40;99.90
24664;DHT22;12791;50.992;13.788;2023-05-16T14:29:19;13.30;99.90
24664;DHT22;12791;50.992;13.788;2023-05-16T14:31:46;13.30;99.90
24664;DHT22;12791;50.992;13.788;2023-05-16T14:34:13;13.30;99.90
24664;DHT22;12791;50.992;13.788;2023-05-16T14:36:39;13.20;99.90
24664;DHT22;12791;50.992;13.788;2023-05-16T14:39:07;13.10;99.90
24664;DHT22;12791;50.992;13.788;2023-05-16T14:41:34;13.10;99.90
24664;DHT22;12791;50.992;13.788;2023-05-16T14:44:01;13.00;99.90
24664;DHT22;12791;50.992;13.788;2023-05-16T14:46:28;12.90;99.90
24664;DHT22;12791;50.992;13.788;2023-05-16T14:48:54;13.10;99.90
24664;DHT22;12791;50.992;13.788;2023-05-16T14:51:21;12.90;99.90
24664;DHT22;12791;50.992;13.788;2023-05-16T14:53:48;13.00;99.90
24664;DHT22;12791;50.992;13.788;2023-05-16T14:56:16;13.00;99.90
24664;DHT22;12791;50.992;13.788;2023-05-16T14:58:42;12.90;99.90
24664;DHT22;12791;50.992;13.788;2023-05-16T15:01:09;12.80;99.90
24664;DHT22;12791;50.992;13.788;2023-05-16T15:03:36;12.80;99.90
24664;DHT22;12791;50.992;13.788;2023-05-16T15:06:03;12.80;99.90
24664;DHT22;12791;50.992;13.788;2023-05-16T15:08:32;12.70;99.90
24664;DHT22;12791;50.992;13.788;2023-05-16T15:10:58;12.70;99.90
24664;DHT22;12791;50.992;13.788;2023-05-16T15:13:26;12.70;99.90
24664;DHT22;12791;50.992;13.788;2023-05-16T15:15:53;12.70;99.90
24664;DHT22;12791;50.992;13.788;2023-05-16T15:18:20;12.70;99.90